Time;durP1;ratioP1;P1;durP2;ratioP2;P2;SDS_P1;SDS_P2;PMS_P1;PMS_P2;Temp;Humidity;BMP_temperature;BMP_pressure;BME280_temperature;BME280_humidity;BME280_pressure;Samples;Min_cycle;Max_cycle;Signal;HPM_P1;HPM_P2
2021/12/17 00:06:58;;;;;;;64.75;37.75;;;;;;;;;;5091425;28;20210;-67
2021/12/17 00:09:24;;;;;;;64.35;36.05;;;;;;;;;;5092337;28;20072;-67
2021/12/17 00:11:50;;;;;;;64.55;35.50;;;;;;;;;;5090918;28;20012;-67
2021/12/17 00:14:25;;;;;;;67.55;35.90;;;;;;;;;;5091916;28;20387;-65
2021/12/17 00:16:52;;;;;;;59.88;35.90;;;;;;;;;;5082432;28;20016;-66
2021/12/17 00:20:20;;;;;;;59.35;35.75;;;;;;;;;;5080877;28;20027;-65
2021/12/17 00:49:22;;;;;;;65.90;34.25;;;;;;;;;;5072755;28;20059;-67
2021/12/17 00:54:30;;;;;;;59.65;33.60;;;;;;;;;;5072924;28;20032;-68
2021/12/17 00:56:58;;;;;;;67.03;36.20;;;;;;;;;;5072942;28;20068;-66
2021/12/17 00:59:24;;;;;;;61.28;35.17;;;;;;;;;;5073500;28;20041;-67
2021/12/17 01:01:52;;;;;;;61.78;34.13;;;;;;;;;;5076931;28;20058;-67
2021/12/17 01:04:19;;;;;;;53.60;32.00;;;;;;;;;;5076858;28;20106;-67
2021/12/17 01:06:45;;;;;;;58.95;34.90;;;;;;;;;;5076870;28;20029;-66
2021/12/17 01:09:14;;;;;;;62.58;35.80;;;;;;;;;;5075453;28;20056;-67
2021/12/17 01:11:40;;;;;;;69.63;37.10;;;;;;;;;;5077010;28;20389;-67
2021/12/17 01:14:07;;;;;;;65.65;35.85;;;;;;;;;;5075381;28;20083;-67
2021/12/17 01:16:33;;;;;;;55.78;31.88;;;;;;;;;;5075370;28;20469;-67
2021/12/17 01:21:34;;;;;;;62.55;34.53;;;;;;;;;;5076516;28;20103;-68
2021/12/17 01:42:38;;;;;;;52.63;32.53;;;;;;;;;;5076120;28;20433;-68
2021/12/17 01:45:06;;;;;;;58.60;32.17;;;;;;;;;;5076372;28;20052;-67
2021/12/17 01:47:32;;;;;;;54.28;31.67;;;;;;;;;;5075787;28;20477;-67
2021/12/17 02:01:11;;;;;;;55.83;31.17;;;;;;;;;;5075629;28;20040;-70
2021/12/17 02:03:38;;;;;;;53.35;32.58;;;;;;;;;;5075698;28;20081;-70
2021/12/17 02:06:05;;;;;;;58.40;33.58;;;;;;;;;;5075449;28;20540;-69
2021/12/17 02:08:32;;;;;;;54.55;33.38;;;;;;;;;;5075734;28;20465;-71
2021/12/17 02:32:11;;;;;;;54.50;31.35;;;;;;;;;;5075232;28;20036;-71
2021/12/17 02:37:08;;;;;;;57.05;31.90;;;;;;;;;;5075210;28;20029;-71
2021/12/17 02:48:06;;;;;;;53.53;31.55;;;;;;;;;;5074996;28;20055;-71
2021/12/17 02:50:34;;;;;;;53.10;30.98;;;;;;;;;;5074570;28;20052;-70
2021/12/17 02:53:02;;;;;;;52.95;30.60;;;;;;;;;;5073529;28;20499;-71
2021/12/17 02:55:29;;;;;;;55.10;31.90;;;;;;;;;;5073397;28;20495;-70
2021/12/17 02:57:56;;;;;;;55.88;32.92;;;;;;;;;;5074844;28;20431;-72
2021/12/17 03:00:22;;;;;;;58.25;31.88;;;;;;;;;;5073078;28;20116;-71
2021/12/17 03:02:49;;;;;;;59.15;33.35;;;;;;;;;;5074573;28;20032;-70
2021/12/17 03:05:16;;;;;;;56.60;32.70;;;;;;;;;;5074563;28;20025;-69
2021/12/17 03:07:45;;;;;;;57.17;32.38;;;;;;;;;;5074604;28;20103;-70
2021/12/17 03:10:13;;;;;;;53.47;31.05;;;;;;;;;;5073201;28;20035;-69
2021/12/17 03:12:50;;;;;;;55.53;31.30;;;;;;;;;;5074466;28;20028;-69
2021/12/17 03:26:00;;;;;;;55.90;32.72;;;;;;;;;;5074212;28;20032;-67
2021/12/17 03:28:27;;;;;;;53.45;32.35;;;;;;;;;;5072876;28;20427;-67
2021/12/17 03:30:53;;;;;;;57.50;31.27;;;;;;;;;;5072785;28;20032;-67
2021/12/17 03:33:21;;;;;;;54.72;33.20;;;;;;;;;;5072671;28;20028;-68
2021/12/17 03:35:48;;;;;;;53.30;31.15;;;;;;;;;;5073983;28;20086;-66
2021/12/17 03:38:14;;;;;;;50.47;30.13;;;;;;;;;;5074006;28;20077;-66
2021/12/17 03:40:42;;;;;;;50.58;30.63;;;;;;;;;;5072551;28;20025;-65
2021/12/17 03:43:13;;;;;;;50.22;30.17;;;;;;;;;;5073776;28;20035;-65
2021/12/17 03:45:41;;;;;;;53.38;31.70;;;;;;;;;;5073474;28;20024;-64
2021/12/17 03:48:07;;;;;;;51.28;30.38;;;;;;;;;;5073809;28;20029;-65
2021/12/17 03:50:35;;;;;;;51.85;32.60;;;;;;;;;;5073332;28;20079;-65
2021/12/17 03:53:03;;;;;;;48.72;29.77;;;;;;;;;;5073591;28;20039;-66
2021/12/17 03:55:29;;;;;;;48.70;29.17;;;;;;;;;;5073318;28;20036;-66
2021/12/17 03:57:55;;;;;;;51.55;32.33;;;;;;;;;;5073342;28;20119;-67
2021/12/17 04:00:21;;;;;;;50.03;31.35;;;;;;;;;;5073510;28;20059;-66
2021/12/17 04:02:48;;;;;;;53.13;31.10;;;;;;;;;;5073414;28;20037;-66
2021/12/17 04:05:14;;;;;;;53.15;32.47;;;;;;;;;;5073435;28;20070;-68
2021/12/17 04:07:40;;;;;;;56.45;32.95;;;;;;;;;;5073699;28;20017;-68
2021/12/17 04:10:06;;;;;;;57.90;34.25;;;;;;;;;;5073302;28;20059;-67
2021/12/17 04:12:53;;;;;;;56.92;33.95;;;;;;;;;;5073354;28;20082;-67
2021/12/17 04:15:28;;;;;;;62.05;35.90;;;;;;;;;;5073276;28;20032;-66
2021/12/17 04:17:57;;;;;;;65.47;36.38;;;;;;;;;;5073333;28;20017;-66
2021/12/17 04:20:23;;;;;;;67.50;36.45;;;;;;;;;;5073259;28;20369;-66
2021/12/17 04:22:49;;;;;;;64.55;36.63;;;;;;;;;;5073162;28;20075;-68
2021/12/17 04:25:16;;;;;;;64.25;36.42;;;;;;;;;;5073484;28;20063;-66
2021/12/17 04:27:42;;;;;;;59.58;35.15;;;;;;;;;;5071976;28;20060;-67
2021/12/17 04:30:08;;;;;;;63.95;38.08;;;;;;;;;;5073142;28;20029;-68
2021/12/17 04:32:34;;;;;;;64.55;37.80;;;;;;;;;;5073115;28;20028;-68
2021/12/17 04:35:01;;;;;;;64.47;37.85;;;;;;;;;;5072781;28;20020;-67
2021/12/17 04:37:27;;;;;;;71.55;39.25;;;;;;;;;;5073036;28;20462;-68
2021/12/17 04:39:53;;;;;;;65.88;36.60;;;;;;;;;;5073031;28;20040;-67
2021/12/17 04:42:54;;;;;;;66.60;38.50;;;;;;;;;;5072984;28;20032;-68
2021/12/17 04:45:06;;;;;;;75.97;39.63;;;;;;;;;;5072100;28;20044;-69
2021/12/17 04:58:31;;;;;;;82.75;43.35;;;;;;;;;;5072647;28;20570;-67
2021/12/17 05:00:59;;;;;;;79.85;42.30;;;;;;;;;;5071414;28;20462;-68
2021/12/17 05:03:25;;;;;;;80.95;42.63;;;;;;;;;;5072664;28;20040;-67
2021/12/17 05:05:51;;;;;;;81.60;43.95;;;;;;;;;;5072797;28;20078;-68
2021/12/17 05:08:20;;;;;;;85.20;44.03;;;;;;;;;;5072503;28;20025;-67
2021/12/17 05:19:45;;;;;;;74.93;40.22;;;;;;;;;;5072431;28;20086;-67
2021/12/17 05:21:50;;;;;;;78.13;41.45;;;;;;;;;;5069153;28;20028;-68
2021/12/17 05:24:16;;;;;;;75.05;40.47;;;;;;;;;;5072584;28;20040;-67
2021/12/17 05:26:42;;;;;;;78.03;41.30;;;;;;;;;;5072865;28;20072;-67
2021/12/17 05:29:08;;;;;;;79.68;38.97;;;;;;;;;;5072564;28;20025;-67
2021/12/17 05:31:34;;;;;;;74.30;39.53;;;;;;;;;;5072532;28;20063;-69
2021/12/17 05:34:01;;;;;;;78.00;39.63;;;;;;;;;;5072489;28;20032;-67
2021/12/17 05:36:27;;;;;;;75.97;41.35;;;;;;;;;;5072463;28;20103;-68
2021/12/17 05:38:53;;;;;;;75.85;39.90;;;;;;;;;;5071142;28;20021;-68
2021/12/17 05:41:19;;;;;;;80.40;41.67;;;;;;;;;;5072443;28;20419;-67
2021/12/17 05:43:54;;;;;;;76.88;42.00;;;;;;;;;;5071005;28;20037;-67
2021/12/17 05:46:34;;;;;;;73.85;39.47;;;;;;;;;;5072938;28;20032;-68
2021/12/17 05:49:00;;;;;;;74.30;39.90;;;;;;;;;;5074700;28;20024;-68
2021/12/17 05:51:26;;;;;;;77.95;41.85;;;;;;;;;;5075564;28;20055;-67
2021/12/17 05:53:53;;;;;;;71.03;41.50;;;;;;;;;;5075911;28;20497;-67
2021/12/17 05:56:20;;;;;;;76.35;40.40;;;;;;;;;;5075859;28;20024;-67
2021/12/17 05:58:46;;;;;;;65.72;38.20;;;;;;;;;;5075890;28;20020;-68
2021/12/17 06:01:12;;;;;;;66.38;37.08;;;;;;;;;;5074495;28;20021;-68
2021/12/17 06:03:39;;;;;;;71.57;40.95;;;;;;;;;;5074358;28;20032;-67
2021/12/17 06:06:05;;;;;;;67.53;37.17;;;;;;;;;;5075667;28;20028;-68
2021/12/17 06:08:32;;;;;;;62.00;34.45;;;;;;;;;;5074325;28;20389;-69
2021/12/17 06:10:58;;;;;;;66.80;37.85;;;;;;;;;;5075933;28;20111;-69
2021/12/17 06:13:24;;;;;;;68.65;40.78;;;;;;;;;;5074192;28;20024;-69
2021/12/17 06:15:50;;;;;;;66.80;37.65;;;;;;;;;;5075515;28;20103;-65
2021/12/17 06:18:17;;;;;;;66.88;38.83;;;;;;;;;;5074269;28;20024;-66
2021/12/17 06:20:43;;;;;;;65.00;37.35;;;;;;;;;;5075438;28;20020;-67
2021/12/17 06:23:10;;;;;;;61.70;35.22;;;;;;;;;;5075590;28;20116;-64
2021/12/17 06:25:36;;;;;;;63.28;37.63;;;;;;;;;;5075301;28;20109;-66
2021/12/17 06:28:02;;;;;;;53.53;32.58;;;;;;;;;;5075215;28;20082;-67
2021/12/17 06:30:28;;;;;;;56.22;32.88;;;;;;;;;;5074941;28;20020;-65
2021/12/17 06:32:55;;;;;;;49.55;30.92;;;;;;;;;;5074946;28;20380;-65
2021/12/17 06:35:21;;;;;;;52.35;32.58;;;;;;;;;;5093372;28;20028;-65
2021/12/17 06:37:48;;;;;;;57.38;32.70;;;;;;;;;;5086264;28;20044;-68
2021/12/17 06:40:14;;;;;;;60.22;34.28;;;;;;;;;;5085218;28;20028;-70
2021/12/17 06:42:40;;;;;;;57.50;32.60;;;;;;;;;;5094580;28;20034;-70
2021/12/17 06:45:15;;;;;;;55.05;32.10;;;;;;;;;;5095041;28;20023;-67
2021/12/17 06:47:45;;;;;;;61.28;35.78;;;;;;;;;;5095032;28;20099;-68
2021/12/17 07:06:01;;;;;;;73.28;41.03;;;;;;;;;;5072909;28;20113;-67
2021/12/17 07:11:32;;;;;;;50.53;30.38;;;;;;;;;;5094309;28;20039;-67
2021/12/17 07:17:13;;;;;;;57.72;31.83;;;;;;;;;;5091897;28;20027;-67
2021/12/17 07:35:25;;;;;;;47.33;28.13;;;;;;;;;;5093464;28;20065;-67
2021/12/17 07:40:34;;;;;;;41.58;26.40;;;;;;;;;;5093635;28;20031;-65
2021/12/17 07:43:02;;;;;;;40.03;26.05;;;;;;;;;;5092565;28;20162;-65
2021/12/17 07:45:29;;;;;;;42.45;27.05;;;;;;;;;;5093883;28;20103;-66
2021/12/17 07:47:55;;;;;;;45.17;27.45;;;;;;;;;;5092484;28;20069;-66
2021/12/17 07:50:21;;;;;;;41.85;26.20;;;;;;;;;;5092186;28;20484;-66
2021/12/17 07:52:48;;;;;;;40.53;25.67;;;;;;;;;;5092044;28;20119;-67
2021/12/17 07:55:14;;;;;;;36.38;24.33;;;;;;;;;;5089832;28;20020;-66
2021/12/17 07:57:40;;;;;;;43.15;27.02;;;;;;;;;;5093585;28;20039;-65
2021/12/17 08:00:07;;;;;;;39.13;25.38;;;;;;;;;;5093323;28;20030;-67
2021/12/17 08:02:33;;;;;;;39.05;23.83;;;;;;;;;;5093393;28;20031;-67
2021/12/17 08:04:59;;;;;;;41.95;26.40;;;;;;;;;;5093452;28;20024;-67
2021/12/17 08:07:25;;;;;;;41.25;26.67;;;;;;;;;;5093395;28;20056;-66
2021/12/17 08:09:52;;;;;;;44.75;25.98;;;;;;;;;;5092861;28;20027;-66
2021/12/17 08:12:19;;;;;;;57.72;29.50;;;;;;;;;;5092019;28;20035;-66
2021/12/17 08:14:45;;;;;;;50.30;27.40;;;;;;;;;;5092159;28;20370;-66
2021/12/17 08:17:41;;;;;;;39.92;24.80;;;;;;;;;;5092016;28;20457;-68
2021/12/17 08:25:50;;;;;;;38.25;22.92;;;;;;;;;;5093421;28;20036;-65
2021/12/17 08:28:17;;;;;;;34.75;21.58;;;;;;;;;;5091968;28;20035;-65
2021/12/17 08:30:43;;;;;;;39.22;22.50;;;;;;;;;;5093309;28;20020;-64
2021/12/17 08:33:10;;;;;;;93.82;51.35;;;;;;;;;;5091798;28;20062;-66
2021/12/17 08:35:37;;;;;;;35.15;20.45;;;;;;;;;;5092986;28;20020;-67
2021/12/17 08:38:06;;;;;;;21.13;14.65;;;;;;;;;;5091665;28;20115;-65
2021/12/17 08:40:33;;;;;;;20.33;13.95;;;;;;;;;;5093392;28;20039;-65
2021/12/17 08:43:01;;;;;;;56.88;32.63;;;;;;;;;;5091616;28;20102;-65
2021/12/17 08:45:27;;;;;;;157.35;78.63;;;;;;;;;;5092997;28;20032;-65
2021/12/17 08:47:53;;;;;;;85.15;57.20;;;;;;;;;;5093287;28;20035;-66
2021/12/17 08:50:20;;;;;;;30.13;20.25;;;;;;;;;;5092557;28;20048;-64
2021/12/17 08:52:47;;;;;;;35.22;18.95;;;;;;;;;;5091577;28;20024;-66
2021/12/17 08:55:14;;;;;;;25.60;16.75;;;;;;;;;;5091437;28;20460;-66
2021/12/17 08:57:40;;;;;;;42.22;25.08;;;;;;;;;;5092932;28;20032;-66
2021/12/17 09:00:08;;;;;;;50.85;25.70;;;;;;;;;;5092991;28;20124;-65
2021/12/17 09:02:36;;;;;;;46.25;27.10;;;;;;;;;;5091475;28;20028;-66
2021/12/17 09:05:06;;;;;;;56.03;32.90;;;;;;;;;;5091469;28;20415;-66
2021/12/17 09:07:33;;;;;;;41.90;23.83;;;;;;;;;;5092989;28;20412;-66
2021/12/17 09:09:59;;;;;;;38.17;23.08;;;;;;;;;;5091496;28;20062;-66
2021/12/17 09:12:25;;;;;;;30.60;18.95;;;;;;;;;;5092921;28;20020;-65
2021/12/17 09:14:52;;;;;;;37.05;21.77;;;;;;;;;;5092569;28;20486;-66
2021/12/17 09:17:21;;;;;;;31.20;19.80;;;;;;;;;;5092709;28;20028;-65
2021/12/17 09:19:47;;;;;;;40.72;22.38;;;;;;;;;;5092801;28;20060;-66
2021/12/17 09:22:14;;;;;;;40.20;22.90;;;;;;;;;;5094771;28;20054;-65
2021/12/17 09:24:40;;;;;;;46.78;28.33;;;;;;;;;;5096650;28;20407;-66
2021/12/17 09:27:06;;;;;;;58.85;30.10;;;;;;;;;;5096673;28;20020;-68
2021/12/17 09:29:32;;;;;;;50.05;29.50;;;;;;;;;;5096577;28;20107;-64
2021/12/17 09:31:59;;;;;;;38.25;22.25;;;;;;;;;;5096342;28;20541;-65
2021/12/17 09:34:25;;;;;;;34.38;17.95;;;;;;;;;;5096486;28;20066;-65
2021/12/17 09:36:51;;;;;;;30.15;18.73;;;;;;;;;;5095106;28;20032;-64
2021/12/17 09:39:18;;;;;;;31.50;19.65;;;;;;;;;;5094259;28;20472;-65
2021/12/17 09:41:50;;;;;;;29.95;18.25;;;;;;;;;;5095070;28;20032;-64
2021/12/17 09:44:16;;;;;;;;;;;;;;;;;;5095389;28;20035;-66
2021/12/17 09:46:43;;;;;;;45.83;24.38;;;;;;;;;;5096209;28;19904;-64
2021/12/17 09:49:10;;;;;;;44.75;24.83;;;;;;;;;;5096131;28;20126;-66
2021/12/17 09:51:37;;;;;;;42.25;23.55;;;;;;;;;;5093750;28;20044;-69
2021/12/17 09:54:03;;;;;;;57.15;28.13;;;;;;;;;;5095441;28;20028;-68
2021/12/17 09:56:30;;;;;;;45.10;25.20;;;;;;;;;;5095842;28;20024;-66
2021/12/17 09:58:56;;;;;;;28.55;17.88;;;;;;;;;;5095476;28;20437;-66
2021/12/17 10:01:22;;;;;;;26.48;15.30;;;;;;;;;;5095535;28;20048;-64
2021/12/17 10:04:08;;;;;;;28.98;18.02;;;;;;;;;;5095774;28;20468;-68
2021/12/17 10:06:35;;;;;;;31.10;16.35;;;;;;;;;;5094306;28;20104;-64
2021/12/17 10:09:01;;;;;;;32.65;16.60;;;;;;;;;;5095304;28;20030;-69
2021/12/17 10:11:27;;;;;;;32.15;17.50;;;;;;;;;;5095673;28;20063;-67
2021/12/17 10:13:53;;;;;;;34.03;18.52;;;;;;;;;;5094211;28;20024;-71
2021/12/17 10:16:21;;;;;;;31.15;17.77;;;;;;;;;;5095878;28;20046;-65
2021/12/17 10:18:48;;;;;;;28.00;15.50;;;;;;;;;;5095426;28;20028;-66
2021/12/17 10:21:17;;;;;;;37.63;18.52;;;;;;;;;;5095465;28;20025;-66
2021/12/17 10:23:44;;;;;;;36.15;19.27;;;;;;;;;;5095407;28;20123;-66
2021/12/17 10:26:14;;;;;;;74.75;40.22;;;;;;;;;;5095306;28;20110;-66
2021/12/17 10:29:00;;;;;;;38.88;22.45;;;;;;;;;;5095033;28;20384;-66
2021/12/17 10:31:28;;;;;;;28.67;18.73;;;;;;;;;;5095197;28;20058;-66
2021/12/17 10:33:58;;;;;;;28.80;16.05;;;;;;;;;;5094651;28;20036;-66
2021/12/17 10:36:33;;;;;;;24.33;16.90;;;;;;;;;;5095204;28;20020;-66
2021/12/17 10:39:02;;;;;;;21.63;14.77;;;;;;;;;;5095305;28;20035;-67
2021/12/17 10:41:29;;;;;;;21.40;14.07;;;;;;;;;;5093280;28;20115;-65
2021/12/17 10:43:59;;;;;;;28.65;16.80;;;;;;;;;;5094827;28;20039;-66
2021/12/17 10:46:29;;;;;;;30.30;16.75;;;;;;;;;;5095208;28;20039;-66
2021/12/17 10:49:17;;;;;;;27.40;15.43;;;;;;;;;;5095002;28;20024;-65
2021/12/17 10:51:55;;;;;;;38.45;22.40;;;;;;;;;;5094469;28;20548;-67
2021/12/17 10:54:22;;;;;;;31.33;21.02;;;;;;;;;;5094938;28;20461;-67
2021/12/17 10:56:53;;;;;;;24.77;16.25;;;;;;;;;;5094776;28;20044;-66
2021/12/17 10:59:31;;;;;;;25.30;16.67;;;;;;;;;;5094806;28;20064;-69
2021/12/17 11:02:00;;;;;;;32.25;14.35;;;;;;;;;;5093397;28;20468;-67
2021/12/17 11:04:26;;;;;;;21.23;14.00;;;;;;;;;;5094547;28;20030;-66
2021/12/17 11:07:00;;;;;;;23.85;13.13;;;;;;;;;;5094399;28;20042;-67
2021/12/17 11:09:35;;;;;;;33.28;22.80;;;;;;;;;;5093440;28;20611;-66
2021/12/17 11:12:22;;;;;;;28.55;19.23;;;;;;;;;;5094704;28;20027;-66
2021/12/17 11:14:48;;;;;;;25.25;15.82;;;;;;;;;;5082410;28;20035;-67
2021/12/17 11:17:16;;;;;;;22.20;13.63;;;;;;;;;;5092674;28;20024;-66
2021/12/17 11:19:42;;;;;;;21.42;12.40;;;;;;;;;;5094453;28;20108;-66
2021/12/17 11:22:09;;;;;;;31.58;19.90;;;;;;;;;;5094100;28;20042;-66
2021/12/17 11:24:36;;;;;;;32.75;20.13;;;;;;;;;;5092863;28;20046;-65
2021/12/17 11:27:03;;;;;;;29.27;19.90;;;;;;;;;;5093974;28;20023;-65
2021/12/17 11:29:30;;;;;;;21.92;14.50;;;;;;;;;;5093980;28;20042;-66
2021/12/17 11:31:56;;;;;;;36.58;21.88;;;;;;;;;;5094210;28;20024;-70
2021/12/17 11:34:22;;;;;;;24.70;14.27;;;;;;;;;;5094005;28;20023;-67
2021/12/17 11:36:49;;;;;;;147.93;69.95;;;;;;;;;;5094003;28;20019;-67
2021/12/17 11:39:22;;;;;;;37.60;23.35;;;;;;;;;;5093512;28;20051;-66
2021/12/17 11:41:51;;;;;;;33.22;22.02;;;;;;;;;;5092626;28;20032;-63
2021/12/17 11:44:19;;;;;;;31.35;17.88;;;;;;;;;;5092766;28;20089;-67
2021/12/17 11:46:59;;;;;;;28.75;16.25;;;;;;;;;;5093693;28;20070;-65
2021/12/17 11:49:26;;;;;;;19.85;13.00;;;;;;;;;;5091997;28;20085;-66
2021/12/17 11:51:54;;;;;;;26.25;13.77;;;;;;;;;;5093946;28;20038;-65
2021/12/17 11:54:26;;;;;;;31.67;14.82;;;;;;;;;;5093723;28;20036;-65
2021/12/17 11:56:55;;;;;;;29.23;16.20;;;;;;;;;;5093808;28;20536;-65
2021/12/17 11:59:28;;;;;;;26.73;14.98;;;;;;;;;;5093551;28;20043;-67
2021/12/17 12:02:01;;;;;;;27.42;15.32;;;;;;;;;;5092051;28;20099;-65
2021/12/17 12:04:34;;;;;;;31.73;17.10;;;;;;;;;;5092224;28;20388;-66
2021/12/17 12:07:01;;;;;;;37.83;18.45;;;;;;;;;;5092184;28;20028;-65
2021/12/17 12:09:47;;;;;;;37.55;18.48;;;;;;;;;;5091464;28;20070;-65
2021/12/17 12:12:13;;;;;;;27.08;16.17;;;;;;;;;;5091137;28;20090;-65
2021/12/17 12:14:39;;;;;;;29.80;15.35;;;;;;;;;;5093645;28;20479;-65
2021/12/17 12:17:05;;;;;;;22.27;13.88;;;;;;;;;;5093466;28;20024;-65
2021/12/17 12:19:48;;;;;;;28.98;13.90;;;;;;;;;;5091926;28;20016;-66
2021/12/17 12:22:14;;;;;;;23.65;15.90;;;;;;;;;;5092058;28;20046;-65
2021/12/17 12:24:41;;;;;;;24.02;14.45;;;;;;;;;;5093306;28;20028;-65
2021/12/17 12:27:26;;;;;;;20.77;13.35;;;;;;;;;;5093320;28;20522;-66
2021/12/17 12:29:59;;;;;;;19.13;11.55;;;;;;;;;;5093281;28;20024;-65
2021/12/17 12:32:25;;;;;;;22.20;11.85;;;;;;;;;;5092869;28;20127;-67
2021/12/17 12:34:53;;;;;;;29.63;16.77;;;;;;;;;;5087879;28;20034;-65
2021/12/17 12:37:26;;;;;;;24.70;12.85;;;;;;;;;;5092477;28;20724;-66
2021/12/17 12:39:58;;;;;;;23.92;12.85;;;;;;;;;;5091096;28;20431;-65
2021/12/17 12:42:27;;;;;;;27.63;14.05;;;;;;;;;;5091628;28;20103;-64
2021/12/17 12:44:56;;;;;;;24.30;13.63;;;;;;;;;;5092571;28;20468;-65
2021/12/17 12:47:26;;;;;;;99.00;45.70;;;;;;;;;;5092861;28;20023;-65
2021/12/17 12:50:02;;;;;;;28.63;13.32;;;;;;;;;;5092705;28;20058;-64
2021/12/17 12:52:32;;;;;;;20.55;10.57;;;;;;;;;;5091608;28;20070;-64
2021/12/17 12:55:04;;;;;;;22.92;11.65;;;;;;;;;;5091398;28;20035;-67
2021/12/17 12:57:39;;;;;;;20.30;11.10;;;;;;;;;;5096563;28;20031;-67
2021/12/17 13:00:16;;;;;;;35.35;18.55;;;;;;;;;;5097129;28;20150;-66
2021/12/17 13:02:43;;;;;;;23.45;13.20;;;;;;;;;;5097043;28;20372;-65
2021/12/17 13:05:09;;;;;;;38.03;21.15;;;;;;;;;;5096632;28;20035;-64
2021/12/17 13:07:38;;;;;;;41.08;22.90;;;;;;;;;;5096899;28;20035;-64
2021/12/17 13:10:22;;;;;;;26.08;13.95;;;;;;;;;;5094326;28;20541;-64
2021/12/17 13:12:51;;;;;;;25.77;13.30;;;;;;;;;;5093524;28;20431;-64
2021/12/17 13:23:28;;;;;;;24.38;12.20;;;;;;;;;;5094392;28;20221;-64
2021/12/17 13:26:20;;;;;;;26.60;11.32;;;;;;;;;;5095174;28;20044;-65
2021/12/17 13:28:52;;;;;;;26.90;14.60;;;;;;;;;;5115089;27;20047;-64
2021/12/17 13:31:37;;;;;;;28.08;14.48;;;;;;;;;;5092926;28;20388;-66
2021/12/17 13:34:11;;;;;;;27.58;14.38;;;;;;;;;;5094023;28;20035;-65
2021/12/17 13:36:37;;;;;;;29.05;15.10;;;;;;;;;;5094132;28;20070;-66
2021/12/17 13:39:05;;;;;;;19.52;11.07;;;;;;;;;;5096391;28;20027;-66
2021/12/17 13:41:49;;;;;;;27.73;12.30;;;;;;;;;;5096273;28;20020;-66
2021/12/17 13:44:34;;;;;;;28.52;12.63;;;;;;;;;;5096217;28;20349;-65
2021/12/17 13:47:07;;;;;;;27.23;13.30;;;;;;;;;;5096302;28;20020;-68
2021/12/17 13:49:33;;;;;;;26.98;13.30;;;;;;;;;;5094608;28;20150;-67
2021/12/17 13:51:59;;;;;;;20.88;11.50;;;;;;;;;;5095994;28;20116;-67
2021/12/17 13:54:26;;;;;;;25.75;12.23;;;;;;;;;;5096068;28;20028;-67
2021/12/17 13:56:58;;;;;;;29.70;13.77;;;;;;;;;;5096082;28;20097;-64
2021/12/17 13:59:33;;;;;;;27.15;13.27;;;;;;;;;;5094519;28;20028;-65
2021/12/17 14:02:06;;;;;;;28.77;13.63;;;;;;;;;;5096389;28;20405;-66
2021/12/17 14:04:32;;;;;;;34.13;18.10;;;;;;;;;;5095964;28;20061;-65
2021/12/17 14:07:04;;;;;;;29.75;14.20;;;;;;;;;;5094918;28;20059;-66
2021/12/17 14:09:30;;;;;;;25.42;12.50;;;;;;;;;;5095006;28;20111;-64
2021/12/17 14:11:58;;;;;;;30.85;13.38;;;;;;;;;;5095269;28;20481;-66
2021/12/17 14:14:25;;;;;;;35.08;16.83;;;;;;;;;;5095645;28;20034;-65
2021/12/17 14:16:58;;;;;;;29.05;15.00;;;;;;;;;;5095701;28;20031;-64
2021/12/17 14:19:44;;;;;;;31.98;16.65;;;;;;;;;;5095665;28;20024;-64
2021/12/17 14:22:33;;;;;;;23.95;14.57;;;;;;;;;;5095660;28;20032;-67
2021/12/17 14:24:59;;;;;;;26.50;14.18;;;;;;;;;;5095528;28;20082;-64
2021/12/17 14:27:45;;;;;;;29.83;15.98;;;;;;;;;;5094082;28;20027;-64
2021/12/17 14:30:12;;;;;;;28.05;15.00;;;;;;;;;;5095524;28;20034;-64
2021/12/17 14:32:46;;;;;;;30.90;14.90;;;;;;;;;;5095475;28;20115;-66
2021/12/17 14:35:13;;;;;;;38.35;17.50;;;;;;;;;;5095346;28;20055;-65
2021/12/17 14:38:06;;;;;;;38.08;19.20;;;;;;;;;;5095362;28;20111;-64
2021/12/17 14:40:48;;;;;;;30.90;16.98;;;;;;;;;;5092089;28;20052;-64
2021/12/17 14:43:25;;;;;;;26.58;16.45;;;;;;;;;;5095304;28;20384;-64
2021/12/17 14:45:59;;;;;;;41.25;19.48;;;;;;;;;;5095604;28;20020;-65
2021/12/17 14:48:37;;;;;;;32.08;18.20;;;;;;;;;;5093942;28;20024;-64
2021/12/17 15:04:37;;;;;;;36.13;18.67;;;;;;;;;;5094769;28;20032;-65
2021/12/17 15:07:04;;;;;;;39.22;22.23;;;;;;;;;;5094717;28;20024;-64
2021/12/17 15:09:33;;;;;;;53.05;28.65;;;;;;;;;;5094259;28;20054;-64
2021/12/17 15:12:01;;;;;;;51.10;25.98;;;;;;;;;;5094515;28;20069;-65
2021/12/17 15:14:27;;;;;;;42.13;19.48;;;;;;;;;;5094676;28;20094;-64
2021/12/17 15:16:54;;;;;;;50.13;24.50;;;;;;;;;;5093373;28;20024;-66
2021/12/17 15:19:20;;;;;;;52.85;27.42;;;;;;;;;;5094546;28;20453;-64
2021/12/17 15:21:46;;;;;;;59.95;28.88;;;;;;;;;;5094784;28;20455;-64
2021/12/17 15:24:13;;;;;;;57.03;28.30;;;;;;;;;;5094456;28;20047;-65
2021/12/17 15:26:39;;;;;;;58.80;28.33;;;;;;;;;;5094543;28;20115;-64
2021/12/17 15:29:05;;;;;;;56.15;27.98;;;;;;;;;;5094358;28;20084;-65
2021/12/17 15:31:31;;;;;;;63.35;30.40;;;;;;;;;;5094333;28;20100;-65
2021/12/17 15:33:57;;;;;;;61.03;30.92;;;;;;;;;;5094583;28;20028;-66
2021/12/17 15:36:23;;;;;;;65.88;32.78;;;;;;;;;;5094167;28;20032;-65
2021/12/17 15:38:49;;;;;;;72.95;34.00;;;;;;;;;;5094459;28;20032;-67
2021/12/17 15:41:16;;;;;;;79.72;39.95;;;;;;;;;;5094415;28;20020;-66
2021/12/17 15:43:42;;;;;;;58.28;31.45;;;;;;;;;;5092782;28;20063;-66
2021/12/17 15:46:08;;;;;;;61.60;32.03;;;;;;;;;;5094043;28;20032;-65
2021/12/17 15:48:34;;;;;;;44.45;24.33;;;;;;;;;;5094039;28;20035;-65
2021/12/17 15:51:02;;;;;;;44.33;22.02;;;;;;;;;;5092242;28;20514;-65
2021/12/17 15:53:29;;;;;;;48.95;23.92;;;;;;;;;;5092687;28;20461;-67
2021/12/17 15:55:55;;;;;;;54.33;24.13;;;;;;;;;;5093951;28;20036;-66
2021/12/17 15:58:21;;;;;;;44.80;21.92;;;;;;;;;;5093896;28;20134;-66
2021/12/17 16:00:48;;;;;;;49.58;22.98;;;;;;;;;;5093800;28;20082;-66
2021/12/17 16:03:15;;;;;;;44.03;22.30;;;;;;;;;;5093653;28;20058;-65
2021/12/17 16:05:42;;;;;;;54.90;26.02;;;;;;;;;;5093348;28;20031;-67
2021/12/17 16:08:08;;;;;;;58.45;25.90;;;;;;;;;;5093686;28;20124;-66
2021/12/17 16:21:08;;;;;;;65.90;29.70;;;;;;;;;;5093522;28;20115;-66
2021/12/17 16:23:39;;;;;;;67.07;29.95;;;;;;;;;;5092174;28;20032;-66
2021/12/17 16:26:06;;;;;;;74.63;33.38;;;;;;;;;;5092134;28;20043;-65
2021/12/17 16:28:33;;;;;;;76.97;34.60;;;;;;;;;;5093397;28;20036;-66
2021/12/17 16:31:04;;;;;;;69.53;30.02;;;;;;;;;;5091583;28;20059;-66
2021/12/17 16:33:31;;;;;;;70.80;32.20;;;;;;;;;;5093374;28;20078;-65
2021/12/17 16:36:00;;;;;;;62.85;30.95;;;;;;;;;;5093275;28;20026;-65
2021/12/17 16:38:26;;;;;;;70.47;31.63;;;;;;;;;;5091878;28;20035;-66
2021/12/17 16:40:52;;;;;;;62.35;29.80;;;;;;;;;;5091845;28;20030;-65
2021/12/17 16:43:19;;;;;;;70.80;27.33;;;;;;;;;;5091896;28;20492;-66
2021/12/17 16:46:02;;;;;;;48.22;22.25;;;;;;;;;;5093225;28;20056;-65
2021/12/17 16:48:29;;;;;;;45.30;22.83;;;;;;;;;;5091937;28;20103;-65
2021/12/17 16:50:55;;;;;;;58.03;30.13;;;;;;;;;;5092817;28;20048;-66
2021/12/17 16:53:21;;;;;;;49.17;25.92;;;;;;;;;;5093179;28;20106;-65
2021/12/17 16:55:47;;;;;;;36.50;20.35;;;;;;;;;;5092864;28;20032;-65
2021/12/17 16:58:13;;;;;;;41.03;22.58;;;;;;;;;;5092967;28;20111;-65
2021/12/17 17:00:40;;;;;;;42.50;28.40;;;;;;;;;;5092953;28;20035;-65
2021/12/17 17:03:06;;;;;;;40.78;21.42;;;;;;;;;;5092890;28;20170;-65
2021/12/17 17:05:32;;;;;;;44.20;27.25;;;;;;;;;;5093284;28;20119;-64
2021/12/17 17:07:58;;;;;;;37.97;20.55;;;;;;;;;;5092970;28;20028;-65
2021/12/17 17:10:30;;;;;;;39.50;19.10;;;;;;;;;;5091636;28;20024;-66
2021/12/17 17:13:00;;;;;;;44.55;19.63;;;;;;;;;;5093043;28;20094;-65
2021/12/17 17:15:27;;;;;;;39.35;19.00;;;;;;;;;;5091665;28;20032;-65
2021/12/17 17:17:53;;;;;;;34.05;18.73;;;;;;;;;;5092896;28;20043;-66
2021/12/17 17:20:20;;;;;;;36.65;18.90;;;;;;;;;;5092872;28;20388;-66
2021/12/17 17:22:46;;;;;;;36.95;17.95;;;;;;;;;;5092841;28;20043;-66
2021/12/17 17:25:12;;;;;;;36.13;17.60;;;;;;;;;;5092708;28;20062;-66
2021/12/17 17:27:39;;;;;;;30.67;17.95;;;;;;;;;;5091440;28;20452;-66
2021/12/17 17:30:05;;;;;;;36.25;19.90;;;;;;;;;;5092749;28;20032;-65
2021/12/17 17:32:34;;;;;;;42.13;19.75;;;;;;;;;;5092681;28;20021;-66
2021/12/17 17:35:02;;;;;;;35.15;18.08;;;;;;;;;;5092774;28;20028;-66
2021/12/17 17:37:31;;;;;;;34.90;19.45;;;;;;;;;;5092636;28;20021;-67
2021/12/17 17:39:58;;;;;;;44.90;24.77;;;;;;;;;;5092638;28;20028;-64
2021/12/17 17:42:24;;;;;;;44.17;23.73;;;;;;;;;;5093230;28;20457;-66
2021/12/17 17:44:50;;;;;;;38.42;19.90;;;;;;;;;;5095023;28;20032;-66
2021/12/17 17:47:20;;;;;;;42.22;20.13;;;;;;;;;;5095061;28;20115;-66
2021/12/17 17:49:47;;;;;;;46.83;24.08;;;;;;;;;;5096167;28;20048;-65
2021/12/17 17:52:13;;;;;;;48.10;25.58;;;;;;;;;;5095069;28;20024;-64
2021/12/17 17:54:40;;;;;;;56.03;26.77;;;;;;;;;;5094916;28;20077;-66